createdAt,value
2019-03-24T00:03:45.863Z,10.2
2019-03-24T00:19:05.378Z,10.1
2019-03-24T00:34:19.533Z,10.3
2019-03-24T00:49:33.681Z,10
2019-03-24T01:04:36.195Z,10
2019-03-24T01:20:01.679Z,9.7
2019-03-24T01:35:15.660Z,9.5
2019-03-24T01:50:29.511Z,9.4
2019-03-24T02:05:43.316Z,9.4
2019-03-24T02:20:53.849Z,9.7
2019-03-24T02:36:11.144Z,9.5
2019-03-24T02:51:25.260Z,9.6
2019-03-24T03:06:39.165Z,9.6
2019-03-24T03:21:43.569Z,9.6
2019-03-24T03:37:06.806Z,9.6
2019-03-24T03:52:20.700Z,9.5
2019-03-24T04:07:34.626Z,9.5
2019-03-24T04:22:48.465Z,9.4
2019-03-24T04:38:01.055Z,9.5
2019-03-24T04:53:16.242Z,9.7
2019-03-24T05:08:30.232Z,9.7
2019-03-24T05:23:46.069Z,9.8
2019-03-24T05:38:50.734Z,9.8
2019-03-24T05:54:12.226Z,9.9
2019-03-24T06:09:26.392Z,9.9
2019-03-24T06:24:40.407Z,10
2019-03-24T06:39:54.469Z,9.9
2019-03-24T06:55:08.594Z,10.1
2019-03-24T07:10:22.799Z,10.4
2019-03-24T07:25:37.079Z,10.7
2019-03-24T07:40:51.422Z,10.8
2019-03-24T07:55:59.026Z,10.9
2019-03-24T08:11:20.374Z,11.1
2019-03-24T08:26:35.001Z,11.4
2019-03-24T08:41:49.735Z,11.6
2019-03-24T08:57:04.453Z,11.8
2019-03-24T09:12:18.768Z,11.8
2019-03-24T09:27:34.057Z,11.8
2019-03-24T09:42:48.956Z,11.9
2019-03-24T09:58:03.717Z,11.9
2019-03-24T10:13:10.300Z,12.1
2019-03-24T10:28:33.599Z,12.3
2019-03-24T10:43:48.818Z,12.7
2019-03-24T10:59:03.796Z,12.5
2019-03-24T11:14:18.889Z,12.5
2019-03-24T11:29:33.725Z,12.7
2019-03-24T11:44:49.087Z,12.5
2019-03-24T12:00:04.118Z,12.3
2019-03-24T12:15:19.236Z,12.5
2019-03-24T12:30:26.887Z,12.2
2019-03-24T12:45:49.147Z,11.7
2019-03-24T13:01:03.999Z,12.5
2019-03-24T13:16:18.782Z,11.5
2019-03-24T13:31:33.402Z,11.3
2019-03-24T13:46:48.540Z,11.2
2019-03-24T14:02:02.449Z,11.2
2019-03-24T14:17:17.173Z,11.2
2019-03-24T14:32:31.682Z,11.2
2019-03-24T14:47:40.883Z,11.2
2019-03-24T15:03:00.890Z,11.8
2019-03-24T15:18:15.498Z,11.2
2019-03-24T15:33:29.968Z,11
2019-03-24T15:48:32.884Z,10.9
2019-03-24T16:03:58.903Z,10.9
2019-03-24T16:19:13.284Z,10.7
2019-03-24T16:34:27.614Z,10.6
2019-03-24T16:49:41.904Z,10.4
2019-03-24T17:04:53.635Z,10.2
2019-03-24T17:20:10.287Z,10.1
2019-03-24T17:35:24.461Z,10.6
2019-03-24T17:50:38.732Z,10.2
2019-03-24T18:05:43.318Z,9.9
2019-03-24T18:21:06.845Z,9.7
2019-03-24T18:36:20.863Z,9.4
2019-03-24T18:51:34.562Z,9.2
2019-03-24T19:06:48.278Z,9
2019-03-24T19:22:00.272Z,8.8
2019-03-24T19:37:15.541Z,8.6
2019-03-24T19:52:29.017Z,8.4
2019-03-24T20:07:47.718Z,8.4
2019-03-24T20:22:56.958Z,8.3
2019-03-24T20:38:09.354Z,8.2
2019-03-24T20:53:22.787Z,8.3
2019-03-24T21:08:36.338Z,8.1
2019-03-24T21:23:49.506Z,7.9
2019-03-24T21:39:02.777Z,7.7
2019-03-24T21:54:15.974Z,7.7
2019-03-24T22:09:29.197Z,7.7
2019-03-24T22:24:42.550Z,7.7
2019-03-24T22:39:50.280Z,8.1
2019-03-24T22:55:09.382Z,8.9
2019-03-24T23:10:22.947Z,8
2019-03-24T23:25:36.175Z,7.5
2019-03-24T23:40:49.278Z,7.4
2019-03-24T23:56:02.416Z,7.3
